sensor_id;sensor_type;location;lat;lon;timestamp;P1;durP1;ratioP1;P2;durP2;ratioP2
22646;SDS011;11490;42.726;23.268;2022-07-17T00:02:26;3.72;;;2.45;;
22646;SDS011;11490;42.726;23.268;2022-07-17T00:04:51;6.07;;;2.45;;
22646;SDS011;11490;42.726;23.268;2022-07-17T00:07:17;3.35;;;2.60;;
22646;SDS011;11490;42.726;23.268;2022-07-17T00:09:42;5.40;;;2.85;;
22646;SDS011;11490;42.726;23.268;2022-07-17T00:12:08;5.30;;;2.33;;
22646;SDS011;11490;42.726;23.268;2022-07-17T00:14:33;7.65;;;3.13;;
22646;SDS011;11490;42.726;23.268;2022-07-17T00:16:58;4.45;;;2.67;;
22646;SDS011;11490;42.726;23.268;2022-07-17T00:19:24;5.50;;;2.35;;
22646;SDS011;11490;42.726;23.268;2022-07-17T00:21:52;4.35;;;2.58;;
22646;SDS011;11490;42.726;23.268;2022-07-17T00:24:18;4.22;;;2.85;;
22646;SDS011;11490;42.726;23.268;2022-07-17T00:26:49;4.63;;;2.55;;
22646;SDS011;11490;42.726;23.268;2022-07-17T00:29:16;7.18;;;3.13;;
22646;SDS011;11490;42.726;23.268;2022-07-17T00:31:42;4.15;;;2.40;;
22646;SDS011;11490;42.726;23.268;2022-07-17T00:34:08;4.53;;;2.45;;
22646;SDS011;11490;42.726;23.268;2022-07-17T00:36:37;4.00;;;2.50;;
22646;SDS011;11490;42.726;23.268;2022-07-17T00:39:11;4.10;;;2.70;;
22646;SDS011;11490;42.726;23.268;2022-07-17T00:41:37;4.63;;;3.40;;
22646;SDS011;11490;42.726;23.268;2022-07-17T00:44:07;4.57;;;3.13;;
22646;SDS011;11490;42.726;23.268;2022-07-17T00:46:34;4.07;;;2.60;;
22646;SDS011;11490;42.726;23.268;2022-07-17T00:49:04;7.72;;;2.80;;
22646;SDS011;11490;42.726;23.268;2022-07-17T00:51:31;4.55;;;2.97;;
22646;SDS011;11490;42.726;23.268;2022-07-17T00:53:58;4.47;;;2.30;;
22646;SDS011;11490;42.726;23.268;2022-07-17T00:56:24;3.05;;;2.30;;
22646;SDS011;11490;42.726;23.268;2022-07-17T00:58:51;3.85;;;2.55;;
22646;SDS011;11490;42.726;23.268;2022-07-17T01:01:17;3.75;;;2.72;;
22646;SDS011;11490;42.726;23.268;2022-07-17T01:03:43;4.82;;;2.35;;
22646;SDS011;11490;42.726;23.268;2022-07-17T01:06:08;4.95;;;2.42;;
22646;SDS011;11490;42.726;23.268;2022-07-17T01:08:34;4.50;;;2.92;;
22646;SDS011;11490;42.726;23.268;2022-07-17T01:11:02;6.32;;;3.08;;
22646;SDS011;11490;42.726;23.268;2022-07-17T01:13:28;5.40;;;3.30;;
22646;SDS011;11490;42.726;23.268;2022-07-17T01:15:55;10.05;;;3.10;;
22646;SDS011;11490;42.726;23.268;2022-07-17T01:18:22;7.18;;;3.05;;
22646;SDS011;11490;42.726;23.268;2022-07-17T01:20:48;6.97;;;3.40;;
22646;SDS011;11490;42.726;23.268;2022-07-17T01:23:14;3.72;;;2.88;;
22646;SDS011;11490;42.726;23.268;2022-07-17T01:25:41;4.50;;;2.92;;
22646;SDS011;11490;42.726;23.268;2022-07-17T01:28:06;4.00;;;2.95;;
22646;SDS011;11490;42.726;23.268;2022-07-17T01:30:33;4.18;;;2.80;;
22646;SDS011;11490;42.726;23.268;2022-07-17T01:32:59;3.50;;;2.60;;
22646;SDS011;11490;42.726;23.268;2022-07-17T01:35:25;4.38;;;3.00;;
22646;SDS011;11490;42.726;23.268;2022-07-17T01:37:50;4.00;;;2.70;;
22646;SDS011;11490;42.726;23.268;2022-07-17T01:40:16;6.80;;;3.58;;
22646;SDS011;11490;42.726;23.268;2022-07-17T01:42:43;4.50;;;3.17;;
22646;SDS011;11490;42.726;23.268;2022-07-17T01:45:13;6.95;;;3.47;;
22646;SDS011;11490;42.726;23.268;2022-07-17T01:47:40;5.32;;;3.30;;
22646;SDS011;11490;42.726;23.268;2022-07-17T01:50:09;4.63;;;2.55;;
22646;SDS011;11490;42.726;23.268;2022-07-17T01:52:40;5.00;;;2.75;;
22646;SDS011;11490;42.726;23.268;2022-07-17T01:55:08;4.03;;;2.63;;
22646;SDS011;11490;42.726;23.268;2022-07-17T01:57:35;4.35;;;3.17;;
22646;SDS011;11490;42.726;23.268;2022-07-17T02:00:00;8.35;;;3.25;;
22646;SDS011;11490;42.726;23.268;2022-07-17T02:02:27;4.40;;;2.85;;
22646;SDS011;11490;42.726;23.268;2022-07-17T02:04:53;4.05;;;2.65;;
22646;SDS011;11490;42.726;23.268;2022-07-17T02:07:18;4.13;;;2.60;;
22646;SDS011;11490;42.726;23.268;2022-07-17T02:09:47;7.13;;;2.90;;
22646;SDS011;11490;42.726;23.268;2022-07-17T02:12:12;4.90;;;2.50;;
22646;SDS011;11490;42.726;23.268;2022-07-17T02:14:37;5.15;;;3.42;;
22646;SDS011;11490;42.726;23.268;2022-07-17T02:17:03;3.42;;;2.38;;
22646;SDS011;11490;42.726;23.268;2022-07-17T02:19:28;3.80;;;2.67;;
22646;SDS011;11490;42.726;23.268;2022-07-17T02:21:54;4.50;;;2.55;;
22646;SDS011;11490;42.726;23.268;2022-07-17T02:24:20;3.35;;;2.33;;
22646;SDS011;11490;42.726;23.268;2022-07-17T02:26:45;5.75;;;2.90;;
22646;SDS011;11490;42.726;23.268;2022-07-17T02:29:10;3.80;;;2.90;;
22646;SDS011;11490;42.726;23.268;2022-07-17T02:31:36;3.95;;;2.55;;
22646;SDS011;11490;42.726;23.268;2022-07-17T02:34:01;4.53;;;2.65;;
22646;SDS011;11490;42.726;23.268;2022-07-17T02:36:27;3.90;;;2.42;;
22646;SDS011;11490;42.726;23.268;2022-07-17T02:38:52;6.20;;;3.33;;
22646;SDS011;11490;42.726;23.268;2022-07-17T02:41:18;4.22;;;2.67;;
22646;SDS011;11490;42.726;23.268;2022-07-17T02:43:43;4.03;;;2.70;;
22646;SDS011;11490;42.726;23.268;2022-07-17T02:46:09;4.65;;;2.90;;
22646;SDS011;11490;42.726;23.268;2022-07-17T02:48:35;5.20;;;2.40;;
22646;SDS011;11490;42.726;23.268;2022-07-17T02:51:00;4.32;;;2.47;;
22646;SDS011;11490;42.726;23.268;2022-07-17T02:53:26;7.18;;;3.03;;
22646;SDS011;11490;42.726;23.268;2022-07-17T02:55:52;4.72;;;2.58;;
22646;SDS011;11490;42.726;23.268;2022-07-17T02:58:17;3.50;;;2.45;;
22646;SDS011;11490;42.726;23.268;2022-07-17T03:00:43;5.00;;;2.80;;
22646;SDS011;11490;42.726;23.268;2022-07-17T03:03:08;3.15;;;2.58;;
22646;SDS011;11490;42.726;23.268;2022-07-17T03:05:34;7.18;;;3.50;;
22646;SDS011;11490;42.726;23.268;2022-07-17T03:07:59;5.47;;;2.80;;
22646;SDS011;11490;42.726;23.268;2022-07-17T03:10:25;4.07;;;2.65;;
22646;SDS011;11490;42.726;23.268;2022-07-17T03:12:53;3.72;;;2.63;;
22646;SDS011;11490;42.726;23.268;2022-07-17T03:15:19;5.03;;;2.80;;
22646;SDS011;11490;42.726;23.268;2022-07-17T03:17:47;3.85;;;2.72;;
22646;SDS011;11490;42.726;23.268;2022-07-17T03:20:16;3.72;;;2.67;;
22646;SDS011;11490;42.726;23.268;2022-07-17T03:22:42;3.70;;;2.60;;
22646;SDS011;11490;42.726;23.268;2022-07-17T03:25:08;6.78;;;3.00;;
22646;SDS011;11490;42.726;23.268;2022-07-17T03:27:34;5.38;;;3.67;;
22646;SDS011;11490;42.726;23.268;2022-07-17T03:30:00;8.18;;;3.15;;
22646;SDS011;11490;42.726;23.268;2022-07-17T03:32:26;4.53;;;3.17;;
22646;SDS011;11490;42.726;23.268;2022-07-17T03:34:51;5.03;;;2.72;;
22646;SDS011;11490;42.726;23.268;2022-07-17T03:37:17;4.05;;;2.72;;
22646;SDS011;11490;42.726;23.268;2022-07-17T03:39:42;5.43;;;2.40;;
22646;SDS011;11490;42.726;23.268;2022-07-17T03:42:08;2.95;;;2.03;;
22646;SDS011;11490;42.726;23.268;2022-07-17T03:44:34;3.72;;;3.03;;
22646;SDS011;11490;42.726;23.268;2022-07-17T03:46:59;9.30;;;4.00;;
22646;SDS011;11490;42.726;23.268;2022-07-17T03:49:25;10.68;;;5.90;;
22646;SDS011;11490;42.726;23.268;2022-07-17T03:51:53;6.47;;;4.57;;
22646;SDS011;11490;42.726;23.268;2022-07-17T03:54:18;5.80;;;3.17;;
22646;SDS011;11490;42.726;23.268;2022-07-17T03:56:44;4.63;;;2.95;;
22646;SDS011;11490;42.726;23.268;2022-07-17T03:59:10;4.55;;;2.67;;
22646;SDS011;11490;42.726;23.268;2022-07-17T04:01:35;4.20;;;3.00;;
22646;SDS011;11490;42.726;23.268;2022-07-17T04:04:01;9.25;;;2.67;;
22646;SDS011;11490;42.726;23.268;2022-07-17T04:06:26;3.60;;;2.45;;
22646;SDS011;11490;42.726;23.268;2022-07-17T04:08:52;4.13;;;2.67;;
22646;SDS011;11490;42.726;23.268;2022-07-17T04:11:18;5.03;;;2.65;;
22646;SDS011;11490;42.726;23.268;2022-07-17T04:13:45;3.20;;;2.42;;
22646;SDS011;11490;42.726;23.268;2022-07-17T04:16:10;4.82;;;2.50;;
22646;SDS011;11490;42.726;23.268;2022-07-17T04:18:36;3.25;;;2.50;;
22646;SDS011;11490;42.726;23.268;2022-07-17T04:21:05;4.63;;;2.70;;
22646;SDS011;11490;42.726;23.268;2022-07-17T04:23:32;4.95;;;3.22;;
22646;SDS011;11490;42.726;23.268;2022-07-17T04:25:58;5.10;;;2.75;;
22646;SDS011;11490;42.726;23.268;2022-07-17T04:28:23;4.22;;;2.65;;
22646;SDS011;11490;42.726;23.268;2022-07-17T04:30:49;7.30;;;2.65;;
22646;SDS011;11490;42.726;23.268;2022-07-17T04:33:15;4.78;;;2.88;;
22646;SDS011;11490;42.726;23.268;2022-07-17T04:35:41;5.18;;;3.00;;
22646;SDS011;11490;42.726;23.268;2022-07-17T04:38:07;4.90;;;2.97;;
22646;SDS011;11490;42.726;23.268;2022-07-17T04:40:33;4.40;;;3.05;;
22646;SDS011;11490;42.726;23.268;2022-07-17T04:43:00;4.05;;;2.67;;
22646;SDS011;11490;42.726;23.268;2022-07-17T04:45:26;4.82;;;2.60;;
22646;SDS011;11490;42.726;23.268;2022-07-17T04:47:51;5.90;;;2.65;;
22646;SDS011;11490;42.726;23.268;2022-07-17T04:50:17;3.15;;;2.15;;
22646;SDS011;11490;42.726;23.268;2022-07-17T04:52:42;5.65;;;2.65;;
22646;SDS011;11490;42.726;23.268;2022-07-17T04:55:08;4.25;;;2.72;;
22646;SDS011;11490;42.726;23.268;2022-07-17T04:57:33;3.88;;;2.70;;
22646;SDS011;11490;42.726;23.268;2022-07-17T04:59:59;5.85;;;3.67;;
22646;SDS011;11490;42.726;23.268;2022-07-17T05:02:25;7.05;;;2.50;;
22646;SDS011;11490;42.726;23.268;2022-07-17T05:04:50;3.60;;;2.83;;
22646;SDS011;11490;42.726;23.268;2022-07-17T05:07:19;3.88;;;2.25;;
22646;SDS011;11490;42.726;23.268;2022-07-17T05:09:44;3.28;;;2.58;;
22646;SDS011;11490;42.726;23.268;2022-07-17T05:12:10;3.45;;;2.63;;
22646;SDS011;11490;42.726;23.268;2022-07-17T05:14:42;4.07;;;2.67;;
22646;SDS011;11490;42.726;23.268;2022-07-17T05:17:07;5.45;;;2.45;;
22646;SDS011;11490;42.726;23.268;2022-07-17T05:19:33;5.00;;;3.13;;
22646;SDS011;11490;42.726;23.268;2022-07-17T05:21:58;4.20;;;2.70;;
22646;SDS011;11490;42.726;23.268;2022-07-17T05:24:24;3.58;;;2.40;;
22646;SDS011;11490;42.726;23.268;2022-07-17T05:26:50;3.65;;;2.65;;
22646;SDS011;11490;42.726;23.268;2022-07-17T05:29:15;3.78;;;2.70;;
22646;SDS011;11490;42.726;23.268;2022-07-17T05:31:40;3.22;;;2.08;;
22646;SDS011;11490;42.726;23.268;2022-07-17T05:34:06;4.07;;;2.60;;
22646;SDS011;11490;42.726;23.268;2022-07-17T05:36:31;4.45;;;2.65;;
22646;SDS011;11490;42.726;23.268;2022-07-17T05:38:57;4.53;;;2.90;;
22646;SDS011;11490;42.726;23.268;2022-07-17T05:41:22;7.07;;;2.58;;
22646;SDS011;11490;42.726;23.268;2022-07-17T05:43:47;3.08;;;2.10;;
22646;SDS011;11490;42.726;23.268;2022-07-17T05:46:13;3.13;;;2.60;;
22646;SDS011;11490;42.726;23.268;2022-07-17T05:48:38;3.90;;;2.70;;
22646;SDS011;11490;42.726;23.268;2022-07-17T05:51:04;3.22;;;2.40;;
22646;SDS011;11490;42.726;23.268;2022-07-17T05:53:29;3.53;;;2.55;;
22646;SDS011;11490;42.726;23.268;2022-07-17T05:55:55;3.85;;;2.35;;
22646;SDS011;11490;42.726;23.268;2022-07-17T05:58:20;4.25;;;2.50;;
22646;SDS011;11490;42.726;23.268;2022-07-17T06:00:45;7.13;;;2.60;;
22646;SDS011;11490;42.726;23.268;2022-07-17T06:03:11;4.60;;;2.40;;
22646;SDS011;11490;42.726;23.268;2022-07-17T06:05:37;3.67;;;2.20;;
22646;SDS011;11490;42.726;23.268;2022-07-17T06:08:02;3.03;;;2.28;;
22646;SDS011;11490;42.726;23.268;2022-07-17T06:10:28;4.72;;;2.60;;
22646;SDS011;11490;42.726;23.268;2022-07-17T06:12:54;4.32;;;2.40;;
22646;SDS011;11490;42.726;23.268;2022-07-17T06:15:21;3.72;;;2.63;;
22646;SDS011;11490;42.726;23.268;2022-07-17T06:17:48;3.83;;;2.72;;
22646;SDS011;11490;42.726;23.268;2022-07-17T06:20:14;4.50;;;2.58;;
22646;SDS011;11490;42.726;23.268;2022-07-17T06:22:40;4.25;;;2.53;;
22646;SDS011;11490;42.726;23.268;2022-07-17T06:25:06;5.20;;;2.47;;
22646;SDS011;11490;42.726;23.268;2022-07-17T06:27:33;2.97;;;2.13;;
22646;SDS011;11490;42.726;23.268;2022-07-17T06:29:58;3.10;;;2.15;;
22646;SDS011;11490;42.726;23.268;2022-07-17T06:32:24;3.25;;;2.20;;
22646;SDS011;11490;42.726;23.268;2022-07-17T06:34:50;4.40;;;2.30;;
22646;SDS011;11490;42.726;23.268;2022-07-17T06:37:15;5.05;;;2.22;;
22646;SDS011;11490;42.726;23.268;2022-07-17T06:39:40;3.35;;;2.08;;
22646;SDS011;11490;42.726;23.268;2022-07-17T06:42:06;4.60;;;2.70;;
22646;SDS011;11490;42.726;23.268;2022-07-17T06:44:31;2.80;;;2.17;;
22646;SDS011;11490;42.726;23.268;2022-07-17T06:47:00;4.75;;;2.53;;
22646;SDS011;11490;42.726;23.268;2022-07-17T06:49:25;3.58;;;2.35;;
22646;SDS011;11490;42.726;23.268;2022-07-17T06:51:51;3.33;;;2.10;;
22646;SDS011;11490;42.726;23.268;2022-07-17T06:54:17;2.65;;;2.00;;
22646;SDS011;11490;42.726;23.268;2022-07-17T06:56:42;3.78;;;1.92;;
22646;SDS011;11490;42.726;23.268;2022-07-17T06:59:08;4.38;;;2.10;;
22646;SDS011;11490;42.726;23.268;2022-07-17T07:01:34;5.50;;;2.00;;
22646;SDS011;11490;42.726;23.268;2022-07-17T07:04:00;3.28;;;2.45;;
22646;SDS011;11490;42.726;23.268;2022-07-17T07:06:26;3.35;;;2.22;;
22646;SDS011;11490;42.726;23.268;2022-07-17T07:08:51;7.55;;;2.17;;
22646;SDS011;11490;42.726;23.268;2022-07-17T07:11:17;3.30;;;2.10;;
22646;SDS011;11490;42.726;23.268;2022-07-17T07:13:42;5.60;;;1.67;;
22646;SDS011;11490;42.726;23.268;2022-07-17T07:16:08;2.90;;;2.10;;
22646;SDS011;11490;42.726;23.268;2022-07-17T07:18:33;2.83;;;2.35;;
22646;SDS011;11490;42.726;23.268;2022-07-17T07:20:58;2.97;;;1.95;;
22646;SDS011;11490;42.726;23.268;2022-07-17T07:23:24;4.07;;;2.25;;
22646;SDS011;11490;42.726;23.268;2022-07-17T07:25:49;3.13;;;2.22;;
22646;SDS011;11490;42.726;23.268;2022-07-17T07:28:15;3.72;;;2.50;;
22646;SDS011;11490;42.726;23.268;2022-07-17T07:30:41;5.13;;;2.42;;
22646;SDS011;11490;42.726;23.268;2022-07-17T07:33:06;4.50;;;2.65;;
22646;SDS011;11490;42.726;23.268;2022-07-17T07:35:32;7.15;;;2.10;;
22646;SDS011;11490;42.726;23.268;2022-07-17T07:37:57;4.95;;;2.55;;
22646;SDS011;11490;42.726;23.268;2022-07-17T07:40:22;3.70;;;2.20;;
22646;SDS011;11490;42.726;23.268;2022-07-17T07:42:48;2.75;;;2.00;;
22646;SDS011;11490;42.726;23.268;2022-07-17T07:45:13;4.60;;;2.25;;
22646;SDS011;11490;42.726;23.268;2022-07-17T07:47:46;3.30;;;2.47;;
22646;SDS011;11490;42.726;23.268;2022-07-17T07:50:13;3.03;;;2.28;;
22646;SDS011;11490;42.726;23.268;2022-07-17T07:52:39;2.95;;;1.88;;
22646;SDS011;11490;42.726;23.268;2022-07-17T07:55:05;4.10;;;2.53;;
22646;SDS011;11490;42.726;23.268;2022-07-17T07:57:33;3.00;;;2.30;;
22646;SDS011;11490;42.726;23.268;2022-07-17T07:59:58;5.85;;;2.58;;
22646;SDS011;11490;42.726;23.268;2022-07-17T08:02:24;5.20;;;2.83;;
22646;SDS011;11490;42.726;23.268;2022-07-17T08:04:49;4.13;;;2.00;;
22646;SDS011;11490;42.726;23.268;2022-07-17T08:07:15;4.75;;;2.05;;
22646;SDS011;11490;42.726;23.268;2022-07-17T08:09:40;3.13;;;1.83;;
22646;SDS011;11490;42.726;23.268;2022-07-17T08:12:05;3.22;;;2.08;;
22646;SDS011;11490;42.726;23.268;2022-07-17T08:14:31;2.95;;;2.10;;
22646;SDS011;11490;42.726;23.268;2022-07-17T08:16:56;3.97;;;2.20;;
22646;SDS011;11490;42.726;23.268;2022-07-17T08:19:22;4.63;;;2.78;;
22646;SDS011;11490;42.726;23.268;2022-07-17T08:21:47;4.80;;;2.40;;
22646;SDS011;11490;42.726;23.268;2022-07-17T08:24:13;3.30;;;2.17;;
22646;SDS011;11490;42.726;23.268;2022-07-17T08:26:38;5.75;;;2.58;;
22646;SDS011;11490;42.726;23.268;2022-07-17T08:29:04;4.95;;;2.40;;
22646;SDS011;11490;42.726;23.268;2022-07-17T08:31:29;4.30;;;2.58;;
22646;SDS011;11490;42.726;23.268;2022-07-17T08:33:55;3.97;;;2.35;;
22646;SDS011;11490;42.726;23.268;2022-07-17T08:36:20;3.05;;;2.10;;
22646;SDS011;11490;42.726;23.268;2022-07-17T08:38:46;7.38;;;2.40;;
22646;SDS011;11490;42.726;23.268;2022-07-17T08:41:16;2.80;;;2.03;;
22646;SDS011;11490;42.726;23.268;2022-07-17T08:43:42;9.05;;;2.78;;
22646;SDS011;11490;42.726;23.268;2022-07-17T08:46:09;3.35;;;2.15;;
22646;SDS011;11490;42.726;23.268;2022-07-17T08:48:37;2.53;;;1.88;;
22646;SDS011;11490;42.726;23.268;2022-07-17T08:51:05;2.85;;;2.22;;
22646;SDS011;11490;42.726;23.268;2022-07-17T08:53:32;3.00;;;2.20;;
22646;SDS011;11490;42.726;23.268;2022-07-17T08:55:57;3.38;;;2.10;;
22646;SDS011;11490;42.726;23.268;2022-07-17T08:58:23;3.67;;;1.90;;
22646;SDS011;11490;42.726;23.268;2022-07-17T09:00:48;5.20;;;2.08;;
22646;SDS011;11490;42.726;23.268;2022-07-17T09:03:15;3.35;;;1.90;;
22646;SDS011;11490;42.726;23.268;2022-07-17T09:05:41;3.42;;;2.47;;
22646;SDS011;11490;42.726;23.268;2022-07-17T09:08:16;8.13;;;2.20;;
22646;SDS011;11490;42.726;23.268;2022-07-17T09:10:46;3.10;;;1.98;;
22646;SDS011;11490;42.726;23.268;2022-07-17T09:13:34;2.90;;;1.90;;
22646;SDS011;11490;42.726;23.268;2022-07-17T09:16:05;3.10;;;2.30;;
22646;SDS011;11490;42.726;23.268;2022-07-17T09:18:45;4.18;;;2.10;;
22646;SDS011;11490;42.726;23.268;2022-07-17T09:21:19;4.00;;;2.00;;
22646;SDS011;11490;42.726;23.268;2022-07-17T09:23:45;3.05;;;1.83;;
22646;SDS011;11490;42.726;23.268;2022-07-17T09:26:22;4.95;;;2.40;;
22646;SDS011;11490;42.726;23.268;2022-07-17T09:28:48;3.58;;;2.08;;
22646;SDS011;11490;42.726;23.268;2022-07-17T09:31:23;2.55;;;1.83;;
22646;SDS011;11490;42.726;23.268;2022-07-17T09:33:50;2.42;;;1.80;;
22646;SDS011;11490;42.726;23.268;2022-07-17T09:36:19;3.67;;;2.10;;
22646;SDS011;11490;42.726;23.268;2022-07-17T09:38:45;4.30;;;3.13;;
22646;SDS011;11490;42.726;23.268;2022-07-17T09:41:15;4.85;;;2.22;;
22646;SDS011;11490;42.726;23.268;2022-07-17T09:46:26;3.70;;;2.30;;
22646;SDS011;11490;42.726;23.268;2022-07-17T09:48:55;4.50;;;2.50;;
22646;SDS011;11490;42.726;23.268;2022-07-17T09:51:27;2.63;;;1.70;;
22646;SDS011;11490;42.726;23.268;2022-07-17T09:53:58;3.63;;;2.15;;
22646;SDS011;11490;42.726;23.268;2022-07-17T09:56:26;3.20;;;1.95;;
22646;SDS011;11490;42.726;23.268;2022-07-17T10:01:31;5.95;;;2.33;;
22646;SDS011;11490;42.726;23.268;2022-07-17T10:03:58;4.13;;;2.28;;
22646;SDS011;11490;42.726;23.268;2022-07-17T10:06:26;4.93;;;2.03;;
22646;SDS011;11490;42.726;23.268;2022-07-17T10:08:52;3.33;;;1.75;;
22646;SDS011;11490;42.726;23.268;2022-07-17T10:11:22;2.70;;;2.00;;
22646;SDS011;11490;42.726;23.268;2022-07-17T10:13:50;2.78;;;1.80;;
22646;SDS011;11490;42.726;23.268;2022-07-17T10:16:26;5.95;;;2.50;;
22646;SDS011;11490;42.726;23.268;2022-07-17T10:18:54;2.22;;;1.65;;
22646;SDS011;11490;42.726;23.268;2022-07-17T10:21:22;3.05;;;2.08;;
22646;SDS011;11490;42.726;23.268;2022-07-17T10:26:19;4.15;;;1.90;;
22646;SDS011;11490;42.726;23.268;2022-07-17T10:28:58;6.72;;;2.22;;
22646;SDS011;11490;42.726;23.268;2022-07-17T10:31:25;2.88;;;1.50;;
22646;SDS011;11490;42.726;23.268;2022-07-17T10:33:58;2.38;;;1.60;;
22646;SDS011;11490;42.726;23.268;2022-07-17T10:36:35;2.58;;;1.75;;
22646;SDS011;11490;42.726;23.268;2022-07-17T10:41:41;3.35;;;2.10;;
22646;SDS011;11490;42.726;23.268;2022-07-17T10:44:08;2.80;;;1.90;;
22646;SDS011;11490;42.726;23.268;2022-07-17T10:46:33;5.32;;;1.80;;
22646;SDS011;11490;42.726;23.268;2022-07-17T10:49:00;3.13;;;1.90;;
22646;SDS011;11490;42.726;23.268;2022-07-17T10:51:29;4.20;;;2.03;;
22646;SDS011;11490;42.726;23.268;2022-07-17T10:53:55;2.58;;;1.50;;
22646;SDS011;11490;42.726;23.268;2022-07-17T10:56:23;3.30;;;1.83;;
22646;SDS011;11490;42.726;23.268;2022-07-17T10:58:50;3.67;;;2.00;;
22646;SDS011;11490;42.726;23.268;2022-07-17T11:01:17;2.83;;;1.73;;
22646;SDS011;11490;42.726;23.268;2022-07-17T11:11:49;5.88;;;2.15;;
22646;SDS011;11490;42.726;23.268;2022-07-17T11:14:15;3.63;;;2.15;;
22646;SDS011;11490;42.726;23.268;2022-07-17T11:16:52;2.88;;;2.10;;
22646;SDS011;11490;42.726;23.268;2022-07-17T11:19:26;2.03;;;1.58;;
22646;SDS011;11490;42.726;23.268;2022-07-17T11:21:56;2.63;;;1.70;;
22646;SDS011;11490;42.726;23.268;2022-07-17T11:24:23;3.28;;;1.73;;
22646;SDS011;11490;42.726;23.268;2022-07-17T11:26:51;3.40;;;2.33;;
22646;SDS011;11490;42.726;23.268;2022-07-17T11:29:16;3.13;;;1.92;;
22646;SDS011;11490;42.726;23.268;2022-07-17T11:31:43;2.83;;;1.77;;
22646;SDS011;11490;42.726;23.268;2022-07-17T11:34:09;2.95;;;1.98;;
22646;SDS011;11490;42.726;23.268;2022-07-17T11:36:37;2.67;;;1.65;;
22646;SDS011;11490;42.726;23.268;2022-07-17T11:39:08;3.03;;;1.92;;
22646;SDS011;11490;42.726;23.268;2022-07-17T11:41:37;3.08;;;1.80;;
22646;SDS011;11490;42.726;23.268;2022-07-17T11:44:10;2.75;;;1.75;;
22646;SDS011;11490;42.726;23.268;2022-07-17T11:46:39;2.30;;;1.58;;
22646;SDS011;11490;42.726;23.268;2022-07-17T11:49:06;2.95;;;2.00;;
22646;SDS011;11490;42.726;23.268;2022-07-17T11:51:33;4.72;;;1.83;;
22646;SDS011;11490;42.726;23.268;2022-07-17T11:54:06;4.13;;;2.20;;
22646;SDS011;11490;42.726;23.268;2022-07-17T11:56:33;3.03;;;1.80;;
22646;SDS011;11490;42.726;23.268;2022-07-17T11:58:59;3.42;;;2.03;;
22646;SDS011;11490;42.726;23.268;2022-07-17T12:01:27;3.83;;;2.10;;
22646;SDS011;11490;42.726;23.268;2022-07-17T12:03:57;4.25;;;1.70;;
22646;SDS011;11490;42.726;23.268;2022-07-17T12:06:24;4.32;;;2.20;;
22646;SDS011;11490;42.726;23.268;2022-07-17T12:08:51;4.45;;;2.08;;
22646;SDS011;11490;42.726;23.268;2022-07-17T12:11:18;3.83;;;2.13;;
22646;SDS011;11490;42.726;23.268;2022-07-17T12:13:44;3.53;;;2.20;;
22646;SDS011;11490;42.726;23.268;2022-07-17T12:18:58;3.72;;;2.10;;
22646;SDS011;11490;42.726;23.268;2022-07-17T12:21:25;3.08;;;2.05;;
22646;SDS011;11490;42.726;23.268;2022-07-17T12:23:58;2.78;;;1.95;;
22646;SDS011;11490;42.726;23.268;2022-07-17T12:26:26;3.22;;;2.22;;
22646;SDS011;11490;42.726;23.268;2022-07-17T12:28:52;4.45;;;2.10;;
22646;SDS011;11490;42.726;23.268;2022-07-17T12:31:17;5.47;;;2.53;;
22646;SDS011;11490;42.726;23.268;2022-07-17T12:33:44;5.28;;;2.30;;
22646;SDS011;11490;42.726;23.268;2022-07-17T12:36:10;4.38;;;2.55;;
22646;SDS011;11490;42.726;23.268;2022-07-17T12:38:35;3.90;;;2.22;;
22646;SDS011;11490;42.726;23.268;2022-07-17T12:41:01;4.07;;;2.40;;
22646;SDS011;11490;42.726;23.268;2022-07-17T12:43:26;3.70;;;2.20;;
22646;SDS011;11490;42.726;23.268;2022-07-17T12:45:58;3.92;;;2.20;;
22646;SDS011;11490;42.726;23.268;2022-07-17T12:48:23;4.43;;;3.20;;
22646;SDS011;11490;42.726;23.268;2022-07-17T12:50:49;3.67;;;2.58;;
22646;SDS011;11490;42.726;23.268;2022-07-17T12:53:14;3.95;;;2.50;;
22646;SDS011;11490;42.726;23.268;2022-07-17T12:55:39;5.50;;;2.50;;
22646;SDS011;11490;42.726;23.268;2022-07-17T12:58:05;4.07;;;2.92;;
22646;SDS011;11490;42.726;23.268;2022-07-17T13:00:31;6.85;;;2.42;;
22646;SDS011;11490;42.726;23.268;2022-07-17T13:02:57;3.60;;;2.33;;
22646;SDS011;11490;42.726;23.268;2022-07-17T13:05:22;3.10;;;2.33;;
22646;SDS011;11490;42.726;23.268;2022-07-17T13:07:48;4.60;;;2.53;;
22646;SDS011;11490;42.726;23.268;2022-07-17T13:10:14;3.90;;;2.30;;
22646;SDS011;11490;42.726;23.268;2022-07-17T13:12:40;3.80;;;2.30;;
22646;SDS011;11490;42.726;23.268;2022-07-17T13:15:06;5.10;;;3.08;;
22646;SDS011;11490;42.726;23.268;2022-07-17T13:17:31;3.75;;;2.17;;
22646;SDS011;11490;42.726;23.268;2022-07-17T13:20:01;3.25;;;2.30;;
22646;SDS011;11490;42.726;23.268;2022-07-17T13:22:27;4.32;;;2.40;;
22646;SDS011;11490;42.726;23.268;2022-07-17T13:24:53;2.60;;;1.77;;
22646;SDS011;11490;42.726;23.268;2022-07-17T13:27:18;4.30;;;2.10;;
22646;SDS011;11490;42.726;23.268;2022-07-17T13:29:45;3.35;;;2.20;;
22646;SDS011;11490;42.726;23.268;2022-07-17T13:32:10;10.18;;;3.03;;
22646;SDS011;11490;42.726;23.268;2022-07-17T13:34:36;4.00;;;2.30;;
22646;SDS011;11490;42.726;23.268;2022-07-17T13:37:01;3.25;;;2.17;;
22646;SDS011;11490;42.726;23.268;2022-07-17T13:39:27;6.85;;;2.47;;
22646;SDS011;11490;42.726;23.268;2022-07-17T13:41:53;3.88;;;2.38;;
22646;SDS011;11490;42.726;23.268;2022-07-17T13:44:18;3.63;;;2.58;;
22646;SDS011;11490;42.726;23.268;2022-07-17T13:46:44;3.65;;;2.60;;
22646;SDS011;11490;42.726;23.268;2022-07-17T14:07:06;2.95;;;2.05;;
22646;SDS011;11490;42.726;23.268;2022-07-17T14:09:32;5.15;;;2.63;;
22646;SDS011;11490;42.726;23.268;2022-07-17T14:11:58;4.78;;;3.40;;
22646;SDS011;11490;42.726;23.268;2022-07-17T14:14:24;5.93;;;2.85;;
22646;SDS011;11490;42.726;23.268;2022-07-17T14:16:50;4.80;;;2.80;;
22646;SDS011;11490;42.726;23.268;2022-07-17T14:19:16;4.97;;;2.95;;
22646;SDS011;11490;42.726;23.268;2022-07-17T14:21:41;3.95;;;2.30;;
22646;SDS011;11490;42.726;23.268;2022-07-17T14:24:07;4.05;;;2.65;;
22646;SDS011;11490;42.726;23.268;2022-07-17T14:26:33;7.22;;;3.08;;
22646;SDS011;11490;42.726;23.268;2022-07-17T14:29:00;6.30;;;2.60;;
22646;SDS011;11490;42.726;23.268;2022-07-17T14:31:27;5.15;;;3.03;;
22646;SDS011;11490;42.726;23.268;2022-07-17T14:33:53;5.50;;;2.72;;
22646;SDS011;11490;42.726;23.268;2022-07-17T14:36:19;5.82;;;2.50;;
22646;SDS011;11490;42.726;23.268;2022-07-17T14:38:44;3.05;;;2.50;;
22646;SDS011;11490;42.726;23.268;2022-07-17T14:41:11;3.83;;;2.58;;
22646;SDS011;11490;42.726;23.268;2022-07-17T14:43:36;4.30;;;2.30;;
22646;SDS011;11490;42.726;23.268;2022-07-17T14:46:01;5.43;;;2.83;;
22646;SDS011;11490;42.726;23.268;2022-07-17T14:48:27;4.00;;;2.42;;
22646;SDS011;11490;42.726;23.268;2022-07-17T14:50:52;5.03;;;2.97;;
22646;SDS011;11490;42.726;23.268;2022-07-17T14:53:18;7.97;;;2.80;;
22646;SDS011;11490;42.726;23.268;2022-07-17T14:55:44;4.53;;;2.92;;
22646;SDS011;11490;42.726;23.268;2022-07-17T14:58:09;5.22;;;3.63;;
22646;SDS011;11490;42.726;23.268;2022-07-17T15:00:35;5.32;;;3.17;;
22646;SDS011;11490;42.726;23.268;2022-07-17T15:03:00;4.25;;;2.97;;
22646;SDS011;11490;42.726;23.268;2022-07-17T15:05:25;8.02;;;3.35;;
22646;SDS011;11490;42.726;23.268;2022-07-17T15:07:51;4.82;;;3.38;;
22646;SDS011;11490;42.726;23.268;2022-07-17T15:10:16;3.53;;;2.97;;